sensor_id;sensor_type;location;lat;lon;timestamp;temperature;humidity
26703;DHT22;14316;51.074;3.704;2022-09-09T00:00:35;15.90;99.90
26703;DHT22;14316;51.074;3.704;2022-09-09T00:05:42;15.70;99.90
26703;DHT22;14316;51.074;3.704;2022-09-09T00:08:21;15.70;99.90
26703;DHT22;14316;51.074;3.704;2022-09-09T00:11:01;15.90;99.90
26703;DHT22;14316;51.074;3.704;2022-09-09T00:13:52;15.90;99.90
26703;DHT22;14316;51.074;3.704;2022-09-09T00:16:19;15.90;99.90
26703;DHT22;14316;51.074;3.704;2022-09-09T00:19:07;15.80;99.90
26703;DHT22;14316;51.074;3.704;2022-09-09T00:21:45;15.70;99.90
26703;DHT22;14316;51.074;3.704;2022-09-09T00:24:38;15.80;99.90
26703;DHT22;14316;51.074;3.704;2022-09-09T00:29:56;16.00;99.90
26703;DHT22;14316;51.074;3.704;2022-09-09T00:32:28;16.10;99.90
26703;DHT22;14316;51.074;3.704;2022-09-09T00:38:14;16.00;99.90
26703;DHT22;14316;51.074;3.704;2022-09-09T00:40:59;15.90;99.90
26703;DHT22;14316;51.074;3.704;2022-09-09T00:43:35;15.90;99.90
26703;DHT22;14316;51.074;3.704;2022-09-09T00:48:39;15.60;99.90
26703;DHT22;14316;51.074;3.704;2022-09-09T00:59:21;15.50;99.90
26703;DHT22;14316;51.074;3.704;2022-09-09T01:01:51;15.60;99.90
26703;DHT22;14316;51.074;3.704;2022-09-09T01:04:29;15.70;99.90
26703;DHT22;14316;51.074;3.704;2022-09-09T01:07:15;15.70;99.90
26703;DHT22;14316;51.074;3.704;2022-09-09T01:09:54;15.60;99.90
26703;DHT22;14316;51.074;3.704;2022-09-09T01:15:00;15.60;99.90
26703;DHT22;14316;51.074;3.704;2022-09-09T01:17:44;15.60;99.90
26703;DHT22;14316;51.074;3.704;2022-09-09T01:20:14;15.50;99.90
26703;DHT22;14316;51.074;3.704;2022-09-09T01:22:59;15.50;99.90
26703;DHT22;14316;51.074;3.704;2022-09-09T01:26:04;15.40;99.90
26703;DHT22;14316;51.074;3.704;2022-09-09T01:28:31;15.40;99.90
26703;DHT22;14316;51.074;3.704;2022-09-09T01:30:58;15.40;99.90
26703;DHT22;14316;51.074;3.704;2022-09-09T01:33:27;15.40;99.90
26703;DHT22;14316;51.074;3.704;2022-09-09T01:36:13;15.50;99.90
26703;DHT22;14316;51.074;3.704;2022-09-09T01:38:43;15.30;99.90
26703;DHT22;14316;51.074;3.704;2022-09-09T01:41:09;15.40;99.90
26703;DHT22;14316;51.074;3.704;2022-09-09T01:43:34;15.30;99.90
26703;DHT22;14316;51.074;3.704;2022-09-09T01:46:01;15.30;99.90
26703;DHT22;14316;51.074;3.704;2022-09-09T01:48:28;15.30;99.90
26703;DHT22;14316;51.074;3.704;2022-09-09T01:50:54;15.30;99.90
26703;DHT22;14316;51.074;3.704;2022-09-09T01:53:21;15.20;99.90
26703;DHT22;14316;51.074;3.704;2022-09-09T01:56:12;15.30;99.90
26703;DHT22;14316;51.074;3.704;2022-09-09T02:06:46;15.30;99.90
26703;DHT22;14316;51.074;3.704;2022-09-09T02:09:14;15.30;99.90
26703;DHT22;14316;51.074;3.704;2022-09-09T02:11:43;15.30;99.90
26703;DHT22;14316;51.074;3.704;2022-09-09T02:14:14;15.40;99.90
26703;DHT22;14316;51.074;3.704;2022-09-09T02:16:52;15.40;99.90
26703;DHT22;14316;51.074;3.704;2022-09-09T02:19:27;15.30;99.90
26703;DHT22;14316;51.074;3.704;2022-09-09T02:22:03;15.30;99.90
26703;DHT22;14316;51.074;3.704;2022-09-09T02:24:36;15.30;99.90
26703;DHT22;14316;51.074;3.704;2022-09-09T02:27:05;15.40;99.90
26703;DHT22;14316;51.074;3.704;2022-09-09T02:29:40;15.50;99.90
26703;DHT22;14316;51.074;3.704;2022-09-09T02:32:09;15.60;99.90
26703;DHT22;14316;51.074;3.704;2022-09-09T02:34:50;15.70;99.90
26703;DHT22;14316;51.074;3.704;2022-09-09T02:37:20;15.60;99.90
26703;DHT22;14316;51.074;3.704;2022-09-09T02:39:47;15.60;99.90
26703;DHT22;14316;51.074;3.704;2022-09-09T02:42:13;15.60;99.90
26703;DHT22;14316;51.074;3.704;2022-09-09T02:44:40;15.50;99.90
26703;DHT22;14316;51.074;3.704;2022-09-09T02:47:29;15.40;99.90
26703;DHT22;14316;51.074;3.704;2022-09-09T02:53:38;15.40;99.90
26703;DHT22;14316;51.074;3.704;2022-09-09T02:55:48;15.40;99.90
26703;DHT22;14316;51.074;3.704;2022-09-09T02:58:17;15.40;99.90
26703;DHT22;14316;51.074;3.704;2022-09-09T03:00:46;15.40;99.90
26703;DHT22;14316;51.074;3.704;2022-09-09T03:03:13;15.40;99.90
26703;DHT22;14316;51.074;3.704;2022-09-09T03:05:39;15.40;99.90
26703;DHT22;14316;51.074;3.704;2022-09-09T03:08:05;15.40;99.90
26703;DHT22;14316;51.074;3.704;2022-09-09T03:10:45;15.30;99.90
26703;DHT22;14316;51.074;3.704;2022-09-09T03:13:15;15.30;99.90
26703;DHT22;14316;51.074;3.704;2022-09-09T03:15:41;15.30;99.90
26703;DHT22;14316;51.074;3.704;2022-09-09T03:18:07;15.40;99.90
26703;DHT22;14316;51.074;3.704;2022-09-09T03:20:39;15.40;99.90
26703;DHT22;14316;51.074;3.704;2022-09-09T03:23:07;15.40;99.90
26703;DHT22;14316;51.074;3.704;2022-09-09T03:25:33;15.40;99.90
26703;DHT22;14316;51.074;3.704;2022-09-09T03:27:59;15.50;99.90
26703;DHT22;14316;51.074;3.704;2022-09-09T03:30:27;15.50;99.90
26703;DHT22;14316;51.074;3.704;2022-09-09T03:32:53;15.50;99.90
26703;DHT22;14316;51.074;3.704;2022-09-09T03:35:20;15.50;99.90
26703;DHT22;14316;51.074;3.704;2022-09-09T03:37:47;15.50;99.90
26703;DHT22;14316;51.074;3.704;2022-09-09T03:40:13;15.60;99.90
26703;DHT22;14316;51.074;3.704;2022-09-09T03:42:39;15.70;99.90
26703;DHT22;14316;51.074;3.704;2022-09-09T03:45:06;15.70;99.90
26703;DHT22;14316;51.074;3.704;2022-09-09T03:47:33;15.70;99.90
26703;DHT22;14316;51.074;3.704;2022-09-09T03:49:59;15.70;99.90
26703;DHT22;14316;51.074;3.704;2022-09-09T03:52:24;15.80;99.90
26703;DHT22;14316;51.074;3.704;2022-09-09T03:54:52;15.80;99.90
26703;DHT22;14316;51.074;3.704;2022-09-09T03:57:19;15.90;99.90
26703;DHT22;14316;51.074;3.704;2022-09-09T03:59:44;15.90;99.90
26703;DHT22;14316;51.074;3.704;2022-09-09T04:02:11;15.90;99.90
26703;DHT22;14316;51.074;3.704;2022-09-09T04:04:36;15.90;99.90
26703;DHT22;14316;51.074;3.704;2022-09-09T04:07:02;15.80;99.90
26703;DHT22;14316;51.074;3.704;2022-09-09T04:09:28;15.80;99.90
26703;DHT22;14316;51.074;3.704;2022-09-09T04:11:54;15.60;99.90
26703;DHT22;14316;51.074;3.704;2022-09-09T04:14:21;15.70;99.90
26703;DHT22;14316;51.074;3.704;2022-09-09T04:16:47;15.70;99.90
26703;DHT22;14316;51.074;3.704;2022-09-09T04:19:25;15.60;99.90
26703;DHT22;14316;51.074;3.704;2022-09-09T04:21:51;15.70;99.90
26703;DHT22;14316;51.074;3.704;2022-09-09T04:24:17;15.80;99.90
26703;DHT22;14316;51.074;3.704;2022-09-09T04:26:47;15.90;99.90
26703;DHT22;14316;51.074;3.704;2022-09-09T04:29:45;15.90;99.90
26703;DHT22;14316;51.074;3.704;2022-09-09T04:32:22;15.80;99.90
26703;DHT22;14316;51.074;3.704;2022-09-09T04:34:49;15.80;99.90
26703;DHT22;14316;51.074;3.704;2022-09-09T04:37:15;15.80;99.90
26703;DHT22;14316;51.074;3.704;2022-09-09T04:39:40;15.80;99.90
26703;DHT22;14316;51.074;3.704;2022-09-09T04:42:09;15.80;99.90
26703;DHT22;14316;51.074;3.704;2022-09-09T04:44:34;15.90;99.90
26703;DHT22;14316;51.074;3.704;2022-09-09T04:47:00;15.90;99.90
26703;DHT22;14316;51.074;3.704;2022-09-09T04:49:25;15.90;99.90
26703;DHT22;14316;51.074;3.704;2022-09-09T04:51:52;15.90;99.90
26703;DHT22;14316;51.074;3.704;2022-09-09T04:54:18;15.80;99.90
26703;DHT22;14316;51.074;3.704;2022-09-09T04:56:44;15.80;99.90
26703;DHT22;14316;51.074;3.704;2022-09-09T04:59:10;15.80;99.90
26703;DHT22;14316;51.074;3.704;2022-09-09T05:01:35;15.80;99.90
26703;DHT22;14316;51.074;3.704;2022-09-09T05:04:02;15.90;99.90
26703;DHT22;14316;51.074;3.704;2022-09-09T05:06:28;15.70;99.90
26703;DHT22;14316;51.074;3.704;2022-09-09T05:08:56;15.70;99.90
26703;DHT22;14316;51.074;3.704;2022-09-09T05:11:28;15.70;99.90
26703;DHT22;14316;51.074;3.704;2022-09-09T05:13:54;15.70;99.90
26703;DHT22;14316;51.074;3.704;2022-09-09T05:16:23;15.80;99.90
26703;DHT22;14316;51.074;3.704;2022-09-09T05:18:49;15.90;99.90
26703;DHT22;14316;51.074;3.704;2022-09-09T05:21:17;15.80;99.90
26703;DHT22;14316;51.074;3.704;2022-09-09T05:23:45;15.70;99.90
26703;DHT22;14316;51.074;3.704;2022-09-09T05:26:16;15.70;99.90
26703;DHT22;14316;51.074;3.704;2022-09-09T05:28:43;15.60;99.90
26703;DHT22;14316;51.074;3.704;2022-09-09T05:31:10;15.50;99.90
26703;DHT22;14316;51.074;3.704;2022-09-09T05:33:49;15.40;99.90
26703;DHT22;14316;51.074;3.704;2022-09-09T05:36:17;15.30;99.90
26703;DHT22;14316;51.074;3.704;2022-09-09T05:38:53;15.20;99.90
26703;DHT22;14316;51.074;3.704;2022-09-09T05:41:19;15.20;99.90
26703;DHT22;14316;51.074;3.704;2022-09-09T05:43:46;15.30;99.90
26703;DHT22;14316;51.074;3.704;2022-09-09T05:46:18;15.40;99.90
26703;DHT22;14316;51.074;3.704;2022-09-09T05:48:45;15.30;99.90
26703;DHT22;14316;51.074;3.704;2022-09-09T05:51:14;15.30;99.90
26703;DHT22;14316;51.074;3.704;2022-09-09T05:53:43;15.30;99.90
26703;DHT22;14316;51.074;3.704;2022-09-09T05:56:30;15.30;99.90
26703;DHT22;14316;51.074;3.704;2022-09-09T05:58:56;15.40;99.90
26703;DHT22;14316;51.074;3.704;2022-09-09T06:01:25;15.40;99.90
26703;DHT22;14316;51.074;3.704;2022-09-09T06:03:52;15.40;99.90
26703;DHT22;14316;51.074;3.704;2022-09-09T06:06:22;15.40;99.90
26703;DHT22;14316;51.074;3.704;2022-09-09T06:08:54;15.40;99.90
26703;DHT22;14316;51.074;3.704;2022-09-09T06:11:29;15.30;99.90
26703;DHT22;14316;51.074;3.704;2022-09-09T06:13:56;15.30;99.90
26703;DHT22;14316;51.074;3.704;2022-09-09T06:16:24;15.10;99.90
26703;DHT22;14316;51.074;3.704;2022-09-09T06:18:54;15.10;99.90
26703;DHT22;14316;51.074;3.704;2022-09-09T06:21:34;15.10;99.90
26703;DHT22;14316;51.074;3.704;2022-09-09T06:24:01;15.20;99.90
26703;DHT22;14316;51.074;3.704;2022-09-09T06:26:35;15.10;99.90
26703;DHT22;14316;51.074;3.704;2022-09-09T06:29:02;15.20;99.90
26703;DHT22;14316;51.074;3.704;2022-09-09T06:31:33;15.30;99.90
26703;DHT22;14316;51.074;3.704;2022-09-09T06:34:00;15.30;99.90
26703;DHT22;14316;51.074;3.704;2022-09-09T06:36:34;15.40;99.90
26703;DHT22;14316;51.074;3.704;2022-09-09T06:39:01;15.40;99.90
26703;DHT22;14316;51.074;3.704;2022-09-09T06:41:29;15.40;99.90
26703;DHT22;14316;51.074;3.704;2022-09-09T06:43:55;15.50;99.90
26703;DHT22;14316;51.074;3.704;2022-09-09T06:46:26;15.60;99.90
26703;DHT22;14316;51.074;3.704;2022-09-09T06:48:53;15.60;99.90
26703;DHT22;14316;51.074;3.704;2022-09-09T06:51:29;15.70;99.90
26703;DHT22;14316;51.074;3.704;2022-09-09T06:53:57;15.70;99.90
26703;DHT22;14316;51.074;3.704;2022-09-09T06:56:25;15.60;99.90
26703;DHT22;14316;51.074;3.704;2022-09-09T06:58:52;15.60;99.90
26703;DHT22;14316;51.074;3.704;2022-09-09T07:01:21;15.60;99.90
26703;DHT22;14316;51.074;3.704;2022-09-09T07:03:53;15.60;99.90
26703;DHT22;14316;51.074;3.704;2022-09-09T07:06:28;15.70;99.90
26703;DHT22;14316;51.074;3.704;2022-09-09T07:08:56;15.80;99.90
26703;DHT22;14316;51.074;3.704;2022-09-09T07:11:24;16.10;99.90
26703;DHT22;14316;51.074;3.704;2022-09-09T07:13:52;16.10;99.90
26703;DHT22;14316;51.074;3.704;2022-09-09T07:16:20;16.20;99.90
26703;DHT22;14316;51.074;3.704;2022-09-09T07:18:46;16.30;99.90
26703;DHT22;14316;51.074;3.704;2022-09-09T07:21:14;16.40;99.90
26703;DHT22;14316;51.074;3.704;2022-09-09T07:23:40;16.60;99.90
26703;DHT22;14316;51.074;3.704;2022-09-09T07:26:11;16.60;99.90
26703;DHT22;14316;51.074;3.704;2022-09-09T07:28:39;16.60;99.90
26703;DHT22;14316;51.074;3.704;2022-09-09T07:31:06;16.70;99.90
26703;DHT22;14316;51.074;3.704;2022-09-09T07:33:34;16.80;99.90
26703;DHT22;14316;51.074;3.704;2022-09-09T07:36:09;16.90;99.90
26703;DHT22;14316;51.074;3.704;2022-09-09T07:38:44;17.00;99.90
26703;DHT22;14316;51.074;3.704;2022-09-09T07:41:14;17.00;99.90
26703;DHT22;14316;51.074;3.704;2022-09-09T07:43:41;16.90;99.90
26703;DHT22;14316;51.074;3.704;2022-09-09T07:46:08;17.00;99.90
26703;DHT22;14316;51.074;3.704;2022-09-09T07:48:34;16.90;99.90
26703;DHT22;14316;51.074;3.704;2022-09-09T07:51:09;16.70;99.90
26703;DHT22;14316;51.074;3.704;2022-09-09T07:53:37;16.70;99.90
26703;DHT22;14316;51.074;3.704;2022-09-09T07:56:08;16.70;99.90
26703;DHT22;14316;51.074;3.704;2022-09-09T07:58:36;16.60;99.90
26703;DHT22;14316;51.074;3.704;2022-09-09T08:01:07;16.50;99.90
26703;DHT22;14316;51.074;3.704;2022-09-09T08:03:33;16.40;99.90
26703;DHT22;14316;51.074;3.704;2022-09-09T08:06:03;16.10;99.90
26703;DHT22;14316;51.074;3.704;2022-09-09T08:08:30;16.10;99.90
26703;DHT22;14316;51.074;3.704;2022-09-09T08:11:07;16.10;99.90
26703;DHT22;14316;51.074;3.704;2022-09-09T08:13:35;16.10;99.90
26703;DHT22;14316;51.074;3.704;2022-09-09T08:16:06;16.00;99.90
26703;DHT22;14316;51.074;3.704;2022-09-09T08:18:33;16.00;99.90
26703;DHT22;14316;51.074;3.704;2022-09-09T08:21:07;15.90;99.90
26703;DHT22;14316;51.074;3.704;2022-09-09T08:23:33;15.80;99.90
26703;DHT22;14316;51.074;3.704;2022-09-09T08:26:10;15.90;99.90
26703;DHT22;14316;51.074;3.704;2022-09-09T08:28:36;15.80;99.90
26703;DHT22;14316;51.074;3.704;2022-09-09T08:31:16;15.90;99.90
26703;DHT22;14316;51.074;3.704;2022-09-09T08:33:44;15.80;99.90
26703;DHT22;14316;51.074;3.704;2022-09-09T08:36:14;15.80;99.90
26703;DHT22;14316;51.074;3.704;2022-09-09T08:38:41;15.80;99.90
26703;DHT22;14316;51.074;3.704;2022-09-09T08:47:46;16.00;99.90
26703;DHT22;14316;51.074;3.704;2022-09-09T08:50:35;16.10;99.90
26703;DHT22;14316;51.074;3.704;2022-09-09T08:53:16;16.20;99.90
26703;DHT22;14316;51.074;3.704;2022-09-09T08:55:49;16.10;99.90
26703;DHT22;14316;51.074;3.704;2022-09-09T08:58:25;16.20;99.90
26703;DHT22;14316;51.074;3.704;2022-09-09T09:11:55;16.20;99.90
26703;DHT22;14316;51.074;3.704;2022-09-09T09:14:28;16.20;99.90
26703;DHT22;14316;51.074;3.704;2022-09-09T09:17:14;16.30;99.90
26703;DHT22;14316;51.074;3.704;2022-09-09T09:19:41;16.40;99.90
26703;DHT22;14316;51.074;3.704;2022-09-09T09:27:47;16.80;99.90
26703;DHT22;14316;51.074;3.704;2022-09-09T09:30:18;17.10;99.90
26703;DHT22;14316;51.074;3.704;2022-09-09T09:35:30;17.20;99.90
26703;DHT22;14316;51.074;3.704;2022-09-09T09:37:56;17.40;99.90
26703;DHT22;14316;51.074;3.704;2022-09-09T09:40:22;17.40;99.90
26703;DHT22;14316;51.074;3.704;2022-09-09T09:42:52;17.20;99.90
26703;DHT22;14316;51.074;3.704;2022-09-09T09:48:04;17.10;99.90
26703;DHT22;14316;51.074;3.704;2022-09-09T09:50:32;17.00;99.90
26703;DHT22;14316;51.074;3.704;2022-09-09T09:53:03;17.10;99.90
26703;DHT22;14316;51.074;3.704;2022-09-09T09:55:31;17.10;99.90
26703;DHT22;14316;51.074;3.704;2022-09-09T09:58:06;17.10;99.90
26703;DHT22;14316;51.074;3.704;2022-09-09T10:00:32;17.20;99.90
26703;DHT22;14316;51.074;3.704;2022-09-09T10:03:00;17.20;99.90
26703;DHT22;14316;51.074;3.704;2022-09-09T10:05:28;17.20;99.90
26703;DHT22;14316;51.074;3.704;2022-09-09T10:08:03;17.30;99.90
26703;DHT22;14316;51.074;3.704;2022-09-09T10:18:59;17.50;99.90
26703;DHT22;14316;51.074;3.704;2022-09-09T10:30:16;17.80;99.90
26703;DHT22;14316;51.074;3.704;2022-09-09T10:32:49;17.60;99.90
26703;DHT22;14316;51.074;3.704;2022-09-09T10:35:24;17.50;99.90
26703;DHT22;14316;51.074;3.704;2022-09-09T10:40:39;17.90;99.90
26703;DHT22;14316;51.074;3.704;2022-09-09T10:56:18;18.20;99.90
26703;DHT22;14316;51.074;3.704;2022-09-09T10:59:10;18.20;99.90
26703;DHT22;14316;51.074;3.704;2022-09-09T11:01:59;18.10;99.90
26703;DHT22;14316;51.074;3.704;2022-09-09T11:07:21;18.50;99.90
26703;DHT22;14316;51.074;3.704;2022-09-09T11:09:54;18.40;99.90
26703;DHT22;14316;51.074;3.704;2022-09-09T11:12:27;18.60;99.90
26703;DHT22;14316;51.074;3.704;2022-09-09T11:15:06;18.90;99.90
26703;DHT22;14316;51.074;3.704;2022-09-09T11:17:46;19.20;99.90
26703;DHT22;14316;51.074;3.704;2022-09-09T11:20:13;19.90;99.90
26703;DHT22;14316;51.074;3.704;2022-09-09T11:23:03;19.60;99.90
26703;DHT22;14316;51.074;3.704;2022-09-09T11:25:39;19.90;99.90
26703;DHT22;14316;51.074;3.704;2022-09-09T11:33:52;19.30;99.90
26703;DHT22;14316;51.074;3.704;2022-09-09T11:41:53;19.70;99.90
26703;DHT22;14316;51.074;3.704;2022-09-09T11:44:30;19.90;99.90
26703;DHT22;14316;51.074;3.704;2022-09-09T11:46:56;19.70;99.90
26703;DHT22;14316;51.074;3.704;2022-09-09T11:52:42;19.90;99.90
26703;DHT22;14316;51.074;3.704;2022-09-09T11:55:25;20.00;99.90
26703;DHT22;14316;51.074;3.704;2022-09-09T12:06:32;20.50;99.90
26703;DHT22;14316;51.074;3.704;2022-09-09T12:11:50;21.60;99.90
26703;DHT22;14316;51.074;3.704;2022-09-09T12:16:46;21.40;99.90
26703;DHT22;14316;51.074;3.704;2022-09-09T12:19:22;20.90;99.90
26703;DHT22;14316;51.074;3.704;2022-09-09T12:22:07;20.20;99.90
26703;DHT22;14316;51.074;3.704;2022-09-09T12:24:59;20.30;99.90
26703;DHT22;14316;51.074;3.704;2022-09-09T12:27:43;20.60;99.90
26703;DHT22;14316;51.074;3.704;2022-09-09T12:30:14;20.60;99.90
26703;DHT22;14316;51.074;3.704;2022-09-09T12:32:40;20.30;99.90
26703;DHT22;14316;51.074;3.704;2022-09-09T12:35:20;19.90;99.90
26703;DHT22;14316;51.074;3.704;2022-09-09T12:37:53;19.80;99.90
26703;DHT22;14316;51.074;3.704;2022-09-09T12:40:27;19.70;99.90
26703;DHT22;14316;51.074;3.704;2022-09-09T12:42:54;19.80;99.90
26703;DHT22;14316;51.074;3.704;2022-09-09T12:45:30;20.30;99.90
26703;DHT22;14316;51.074;3.704;2022-09-09T12:48:03;20.70;99.90
26703;DHT22;14316;51.074;3.704;2022-09-09T12:50:36;20.80;99.90
26703;DHT22;14316;51.074;3.704;2022-09-09T12:53:14;20.80;99.90
26703;DHT22;14316;51.074;3.704;2022-09-09T12:55:56;20.40;99.90
26703;DHT22;14316;51.074;3.704;2022-09-09T12:58:26;19.90;99.90
26703;DHT22;14316;51.074;3.704;2022-09-09T13:00:55;19.70;99.90
26703;DHT22;14316;51.074;3.704;2022-09-09T13:03:26;19.90;99.90
26703;DHT22;14316;51.074;3.704;2022-09-09T13:05:53;19.50;99.90
26703;DHT22;14316;51.074;3.704;2022-09-09T13:08:24;19.50;99.90
26703;DHT22;14316;51.074;3.704;2022-09-09T13:13:56;19.20;99.90
26703;DHT22;14316;51.074;3.704;2022-09-09T13:18:51;19.20;99.90
26703;DHT22;14316;51.074;3.704;2022-09-09T13:21:18;18.90;99.90
26703;DHT22;14316;51.074;3.704;2022-09-09T13:23:49;18.90;99.90
26703;DHT22;14316;51.074;3.704;2022-09-09T13:26:26;18.90;99.90
26703;DHT22;14316;51.074;3.704;2022-09-09T13:29:07;19.50;99.90
26703;DHT22;14316;51.074;3.704;2022-09-09T13:31:36;19.90;99.90
26703;DHT22;14316;51.074;3.704;2022-09-09T13:34:27;20.90;99.90
26703;DHT22;14316;51.074;3.704;2022-09-09T13:36:58;22.30;99.90
26703;DHT22;14316;51.074;3.704;2022-09-09T13:39:25;22.70;99.90
26703;DHT22;14316;51.074;3.704;2022-09-09T13:41:50;24.00;99.90
26703;DHT22;14316;51.074;3.704;2022-09-09T13:44:24;23.80;99.90
26703;DHT22;14316;51.074;3.704;2022-09-09T13:47:06;23.30;99.90
26703;DHT22;14316;51.074;3.704;2022-09-09T13:49:32;22.50;99.90
26703;DHT22;14316;51.074;3.704;2022-09-09T13:52:16;22.00;99.90
26703;DHT22;14316;51.074;3.704;2022-09-09T13:54:43;22.00;99.90
26703;DHT22;14316;51.074;3.704;2022-09-09T13:57:18;21.60;99.90
26703;DHT22;14316;51.074;3.704;2022-09-09T13:59:48;21.10;99.90
26703;DHT22;14316;51.074;3.704;2022-09-09T14:02:14;20.80;99.90
26703;DHT22;14316;51.074;3.704;2022-09-09T14:04:42;20.80;99.90
26703;DHT22;14316;51.074;3.704;2022-09-09T14:07:14;20.90;99.90
26703;DHT22;14316;51.074;3.704;2022-09-09T14:09:41;20.90;99.90
26703;DHT22;14316;51.074;3.704;2022-09-09T14:12:13;20.50;99.90
26703;DHT22;14316;51.074;3.704;2022-09-09T14:14:40;21.10;99.90
26703;DHT22;14316;51.074;3.704;2022-09-09T14:17:08;21.60;99.90
26703;DHT22;14316;51.074;3.704;2022-09-09T14:19:33;21.70;99.90
26703;DHT22;14316;51.074;3.704;2022-09-09T14:21:59;21.40;99.90
26703;DHT22;14316;51.074;3.704;2022-09-09T14:24:25;21.20;99.90
26703;DHT22;14316;51.074;3.704;2022-09-09T14:26:51;21.20;99.90
26703;DHT22;14316;51.074;3.704;2022-09-09T14:29:17;20.90;99.90
26703;DHT22;14316;51.074;3.704;2022-09-09T14:31:45;21.10;99.90
26703;DHT22;14316;51.074;3.704;2022-09-09T14:34:11;23.60;99.90
26703;DHT22;14316;51.074;3.704;2022-09-09T14:36:37;26.20;99.90
26703;DHT22;14316;51.074;3.704;2022-09-09T14:39:04;27.60;99.90
26703;DHT22;14316;51.074;3.704;2022-09-09T14:41:30;28.40;99.90
26703;DHT22;14316;51.074;3.704;2022-09-09T14:43:56;27.10;99.90
26703;DHT22;14316;51.074;3.704;2022-09-09T14:46:31;25.90;99.90
26703;DHT22;14316;51.074;3.704;2022-09-09T14:48:58;25.00;99.90
26703;DHT22;14316;51.074;3.704;2022-09-09T14:51:25;23.40;99.90
26703;DHT22;14316;51.074;3.704;2022-09-09T14:53:57;22.10;99.90
26703;DHT22;14316;51.074;3.704;2022-09-09T14:56:25;20.80;99.90
26703;DHT22;14316;51.074;3.704;2022-09-09T14:58:54;20.30;99.90
26703;DHT22;14316;51.074;3.704;2022-09-09T15:01:21;20.10;99.90
26703;DHT22;14316;51.074;3.704;2022-09-09T15:04:01;20.10;99.90
26703;DHT22;14316;51.074;3.704;2022-09-09T15:06:30;20.10;99.90
26703;DHT22;14316;51.074;3.704;2022-09-09T15:08:58;19.80;99.90
26703;DHT22;14316;51.074;3.704;2022-09-09T15:11:26;19.50;99.90
26703;DHT22;14316;51.074;3.704;2022-09-09T15:13:53;19.50;99.90
26703;DHT22;14316;51.074;3.704;2022-09-09T15:16:21;19.50;99.90
26703;DHT22;14316;51.074;3.704;2022-09-09T15:18:51;19.60;99.90
26703;DHT22;14316;51.074;3.704;2022-09-09T15:21:19;19.70;99.90
26703;DHT22;14316;51.074;3.704;2022-09-09T15:23:45;19.70;99.90
26703;DHT22;14316;51.074;3.704;2022-09-09T15:26:12;19.80;99.90
26703;DHT22;14316;51.074;3.704;2022-09-09T15:28:40;19.70;99.90
26703;DHT22;14316;51.074;3.704;2022-09-09T15:31:25;19.70;99.90
26703;DHT22;14316;51.074;3.704;2022-09-09T15:33:59;19.60;99.90
26703;DHT22;14316;51.074;3.704;2022-09-09T15:39:02;19.40;99.90
26703;DHT22;14316;51.074;3.704;2022-09-09T15:41:29;19.30;99.90
26703;DHT22;14316;51.074;3.704;2022-09-09T15:43:59;19.30;99.90
26703;DHT22;14316;51.074;3.704;2022-09-09T15:49:14;19.30;99.90
26703;DHT22;14316;51.074;3.704;2022-09-09T15:51:42;19.30;99.90
26703;DHT22;14316;51.074;3.704;2022-09-09T15:54:12;19.20;99.90
26703;DHT22;14316;51.074;3.704;2022-09-09T15:56:39;19.20;99.90
26703;DHT22;14316;51.074;3.704;2022-09-09T15:59:05;19.30;99.90
26703;DHT22;14316;51.074;3.704;2022-09-09T16:01:32;19.80;99.90
26703;DHT22;14316;51.074;3.704;2022-09-09T16:03:59;20.50;99.90
26703;DHT22;14316;51.074;3.704;2022-09-09T16:06:26;21.30;99.90
26703;DHT22;14316;51.074;3.704;2022-09-09T16:08:54;21.90;99.90
26703;DHT22;14316;51.074;3.704;2022-09-09T16:13:48;23.60;99.90
26703;DHT22;14316;51.074;3.704;2022-09-09T16:16:16;23.90;99.90
26703;DHT22;14316;51.074;3.704;2022-09-09T16:18:44;23.70;99.90
26703;DHT22;14316;51.074;3.704;2022-09-09T16:21:17;24.20;99.90
26703;DHT22;14316;51.074;3.704;2022-09-09T16:23:43;24.70;99.90
26703;DHT22;14316;51.074;3.704;2022-09-09T16:26:14;24.50;99.90
26703;DHT22;14316;51.074;3.704;2022-09-09T16:28:41;24.40;99.90
26703;DHT22;14316;51.074;3.704;2022-09-09T16:31:09;24.40;99.90
26703;DHT22;14316;51.074;3.704;2022-09-09T16:33:36;24.60;99.90
26703;DHT22;14316;51.074;3.704;2022-09-09T16:36:10;24.40;99.90
26703;DHT22;14316;51.074;3.704;2022-09-09T16:38:37;23.90;99.90
26703;DHT22;14316;51.074;3.704;2022-09-09T16:41:04;24.20;99.90
26703;DHT22;14316;51.074;3.704;2022-09-09T16:43:34;24.10;99.90
26703;DHT22;14316;51.074;3.704;2022-09-09T16:48:38;22.60;99.90
26703;DHT22;14316;51.074;3.704;2022-09-09T16:51:11;21.80;99.90
26703;DHT22;14316;51.074;3.704;2022-09-09T16:53:47;21.20;99.90
26703;DHT22;14316;51.074;3.704;2022-09-09T16:56:18;20.30;99.90
26703;DHT22;14316;51.074;3.704;2022-09-09T16:58:50;20.20;99.90
26703;DHT22;14316;51.074;3.704;2022-09-09T17:01:16;20.20;99.90
26703;DHT22;14316;51.074;3.704;2022-09-09T17:07:19;20.20;99.90
26703;DHT22;14316;51.074;3.704;2022-09-09T17:09:45;20.00;99.90
26703;DHT22;14316;51.074;3.704;2022-09-09T17:12:11;19.10;99.90
26703;DHT22;14316;51.074;3.704;2022-09-09T17:14:39;18.10;99.90
26703;DHT22;14316;51.074;3.704;2022-09-09T17:17:05;17.70;99.90
26703;DHT22;14316;51.074;3.704;2022-09-09T17:19:31;17.60;99.90
26703;DHT22;14316;51.074;3.704;2022-09-09T17:21:57;17.40;99.90
26703;DHT22;14316;51.074;3.704;2022-09-09T17:24:24;17.30;99.90
26703;DHT22;14316;51.074;3.704;2022-09-09T17:26:51;17.20;99.90
26703;DHT22;14316;51.074;3.704;2022-09-09T17:29:18;17.10;99.90
26703;DHT22;14316;51.074;3.704;2022-09-09T17:31:44;17.20;99.90
26703;DHT22;14316;51.074;3.704;2022-09-09T17:34:10;17.10;99.90
26703;DHT22;14316;51.074;3.704;2022-09-09T17:36:37;17.10;99.90
26703;DHT22;14316;51.074;3.704;2022-09-09T17:39:04;17.10;99.90
26703;DHT22;14316;51.074;3.704;2022-09-09T17:41:38;17.10;99.90
26703;DHT22;14316;51.074;3.704;2022-09-09T17:44:06;17.10;99.90
26703;DHT22;14316;51.074;3.704;2022-09-09T17:46:40;17.10;99.90
26703;DHT22;14316;51.074;3.704;2022-09-09T17:49:09;17.10;99.90
26703;DHT22;14316;51.074;3.704;2022-09-09T17:51:36;17.00;99.90
26703;DHT22;14316;51.074;3.704;2022-09-09T17:54:06;17.10;99.90
26703;DHT22;14316;51.074;3.704;2022-09-09T17:56:36;17.00;99.90
26703;DHT22;14316;51.074;3.704;2022-09-09T17:59:04;17.10;99.90
26703;DHT22;14316;51.074;3.704;2022-09-09T18:01:35;17.00;99.90
26703;DHT22;14316;51.074;3.704;2022-09-09T18:04:03;17.10;99.90
26703;DHT22;14316;51.074;3.704;2022-09-09T18:06:33;17.10;99.90
26703;DHT22;14316;51.074;3.704;2022-09-09T18:09:05;17.10;99.90
26703;DHT22;14316;51.074;3.704;2022-09-09T18:11:32;17.10;99.90
26703;DHT22;14316;51.074;3.704;2022-09-09T18:14:00;17.00;99.90
26703;DHT22;14316;51.074;3.704;2022-09-09T18:16:27;17.00;99.90